sensor_id;sensor_type;location;lat;lon;timestamp;pressure;altitude;pressure_sealevel;temperature;humidity
59337;BME280;45115;52.002;4.686;2022-10-16T00:01:26;100930.41;;;12.67;100.00
59337;BME280;45115;52.002;4.686;2022-10-16T00:03:54;100929.56;;;12.71;100.00
59337;BME280;45115;52.002;4.686;2022-10-16T00:06:22;100929.56;;;12.71;100.00
59337;BME280;45115;52.002;4.686;2022-10-16T00:08:50;100921.00;;;12.74;100.00
59337;BME280;45115;52.002;4.686;2022-10-16T00:11:18;100926.53;;;12.83;100.00
59337;BME280;45115;52.002;4.686;2022-10-16T00:13:46;100915.91;;;12.78;100.00
59337;BME280;45115;52.002;4.686;2022-10-16T00:16:15;100936.56;;;12.92;100.00
59337;BME280;45115;52.002;4.686;2022-10-16T00:18:42;100947.78;;;12.88;100.00
59337;BME280;45115;52.002;4.686;2022-10-16T00:21:12;100944.34;;;12.88;100.00
59337;BME280;45115;52.002;4.686;2022-10-16T00:23:39;100945.38;;;12.87;100.00
59337;BME280;45115;52.002;4.686;2022-10-16T00:26:08;100949.66;;;12.88;100.00
59337;BME280;45115;52.002;4.686;2022-10-16T00:28:35;100952.66;;;12.81;100.00
59337;BME280;45115;52.002;4.686;2022-10-16T00:31:04;100951.78;;;12.86;100.00
59337;BME280;45115;52.002;4.686;2022-10-16T00:33:32;100956.00;;;12.92;100.00
59337;BME280;45115;52.002;4.686;2022-10-16T00:35:59;100952.56;;;12.92;100.00
59337;BME280;45115;52.002;4.686;2022-10-16T00:38:26;100946.69;;;12.89;100.00
59337;BME280;45115;52.002;4.686;2022-10-16T00:40:53;100942.00;;;12.81;100.00
59337;BME280;45115;52.002;4.686;2022-10-16T00:43:35;100944.50;;;12.67;100.00
59337;BME280;45115;52.002;4.686;2022-10-16T00:46:12;100944.22;;;12.69;100.00
59337;BME280;45115;52.002;4.686;2022-10-16T00:48:42;100941.03;;;12.67;100.00
59337;BME280;45115;52.002;4.686;2022-10-16T00:51:11;100930.47;;;12.56;100.00
59337;BME280;45115;52.002;4.686;2022-10-16T00:53:38;100948.84;;;12.58;100.00
59337;BME280;45115;52.002;4.686;2022-10-16T00:56:05;100946.97;;;12.58;100.00
59337;BME280;45115;52.002;4.686;2022-10-16T00:58:32;100953.09;;;12.59;100.00
59337;BME280;45115;52.002;4.686;2022-10-16T01:00:58;100949.56;;;12.63;100.00
59337;BME280;45115;52.002;4.686;2022-10-16T01:03:28;100930.44;;;12.61;100.00
59337;BME280;45115;52.002;4.686;2022-10-16T01:08:49;100927.50;;;12.63;100.00
59337;BME280;45115;52.002;4.686;2022-10-16T01:11:22;100912.63;;;12.62;100.00
59337;BME280;45115;52.002;4.686;2022-10-16T01:13:53;100927.28;;;12.59;100.00
59337;BME280;45115;52.002;4.686;2022-10-16T01:16:28;100936.06;;;12.55;100.00
59337;BME280;45115;52.002;4.686;2022-10-16T01:19:01;100936.06;;;12.55;100.00
59337;BME280;45115;52.002;4.686;2022-10-16T01:21:36;100944.88;;;12.55;100.00
59337;BME280;45115;52.002;4.686;2022-10-16T01:24:09;100944.09;;;12.49;100.00
59337;BME280;45115;52.002;4.686;2022-10-16T01:26:52;100949.75;;;12.38;100.00
59337;BME280;45115;52.002;4.686;2022-10-16T01:29:23;100959.66;;;12.32;100.00
59337;BME280;45115;52.002;4.686;2022-10-16T01:31:56;100955.97;;;12.28;100.00
59337;BME280;45115;52.002;4.686;2022-10-16T01:34:30;100960.78;;;12.26;100.00
59337;BME280;45115;52.002;4.686;2022-10-16T01:37:03;100958.88;;;12.26;100.00
59337;BME280;45115;52.002;4.686;2022-10-16T01:39:34;100965.56;;;12.23;100.00
59337;BME280;45115;52.002;4.686;2022-10-16T01:42:05;100964.28;;;12.16;100.00
59337;BME280;45115;52.002;4.686;2022-10-16T01:44:35;100955.31;;;12.01;100.00
59337;BME280;45115;52.002;4.686;2022-10-16T01:47:04;100964.63;;;11.93;100.00
59337;BME280;45115;52.002;4.686;2022-10-16T01:49:33;100963.34;;;11.86;100.00
59337;BME280;45115;52.002;4.686;2022-10-16T01:52:04;100963.13;;;11.72;100.00
59337;BME280;45115;52.002;4.686;2022-10-16T01:54:33;100965.53;;;11.63;100.00
59337;BME280;45115;52.002;4.686;2022-10-16T01:57:02;100978.59;;;11.54;100.00
59337;BME280;45115;52.002;4.686;2022-10-16T01:59:32;100976.75;;;11.49;100.00
59337;BME280;45115;52.002;4.686;2022-10-16T02:02:07;100985.25;;;11.46;100.00
59337;BME280;45115;52.002;4.686;2022-10-16T02:04:36;100988.41;;;11.53;100.00
59337;BME280;45115;52.002;4.686;2022-10-16T02:07:05;100974.88;;;11.55;100.00
59337;BME280;45115;52.002;4.686;2022-10-16T02:09:33;100980.41;;;11.64;100.00
59337;BME280;45115;52.002;4.686;2022-10-16T02:12:03;100988.69;;;11.62;100.00
59337;BME280;45115;52.002;4.686;2022-10-16T02:14:32;100982.56;;;11.62;100.00
59337;BME280;45115;52.002;4.686;2022-10-16T02:16:59;100990.78;;;11.65;100.00
59337;BME280;45115;52.002;4.686;2022-10-16T02:19:27;100990.75;;;11.70;100.00
59337;BME280;45115;52.002;4.686;2022-10-16T02:21:56;100983.59;;;11.71;100.00
59337;BME280;45115;52.002;4.686;2022-10-16T02:24:28;100996.06;;;11.76;100.00
59337;BME280;45115;52.002;4.686;2022-10-16T02:27:05;100982.50;;;11.77;100.00
59337;BME280;45115;52.002;4.686;2022-10-16T02:29:35;100983.81;;;11.85;100.00
59337;BME280;45115;52.002;4.686;2022-10-16T02:32:06;100977.47;;;11.76;100.00
59337;BME280;45115;52.002;4.686;2022-10-16T02:34:37;100994.47;;;11.80;100.00
59337;BME280;45115;52.002;4.686;2022-10-16T02:37:06;100987.81;;;11.82;100.00
59337;BME280;45115;52.002;4.686;2022-10-16T02:39:34;100998.94;;;11.85;100.00
59337;BME280;45115;52.002;4.686;2022-10-16T02:42:01;100991.28;;;11.83;100.00
59337;BME280;45115;52.002;4.686;2022-10-16T02:44:27;100992.28;;;11.87;100.00
59337;BME280;45115;52.002;4.686;2022-10-16T02:46:55;100980.09;;;11.81;100.00
59337;BME280;45115;52.002;4.686;2022-10-16T02:49:21;100990.19;;;11.89;100.00
59337;BME280;45115;52.002;4.686;2022-10-16T02:51:49;100995.50;;;11.89;100.00
59337;BME280;45115;52.002;4.686;2022-10-16T02:54:16;100980.84;;;11.92;100.00
59337;BME280;45115;52.002;4.686;2022-10-16T02:56:42;100971.84;;;11.88;100.00
59337;BME280;45115;52.002;4.686;2022-10-16T02:59:09;100967.38;;;11.78;100.00
59337;BME280;45115;52.002;4.686;2022-10-16T03:01:36;100961.25;;;11.77;100.00
59337;BME280;45115;52.002;4.686;2022-10-16T03:04:03;100965.50;;;11.73;100.00
59337;BME280;45115;52.002;4.686;2022-10-16T03:06:29;100975.41;;;11.62;100.00
59337;BME280;45115;52.002;4.686;2022-10-16T03:08:57;100981.75;;;11.61;100.00
59337;BME280;45115;52.002;4.686;2022-10-16T03:11:24;100977.25;;;11.56;100.00
59337;BME280;45115;52.002;4.686;2022-10-16T03:13:51;100993.72;;;11.53;100.00
59337;BME280;45115;52.002;4.686;2022-10-16T03:16:18;100998.25;;;11.58;100.00
59337;BME280;45115;52.002;4.686;2022-10-16T03:18:47;100999.81;;;11.64;100.00
59337;BME280;45115;52.002;4.686;2022-10-16T03:21:14;101000.88;;;11.68;100.00
59337;BME280;45115;52.002;4.686;2022-10-16T03:23:42;101009.09;;;11.77;100.00
59337;BME280;45115;52.002;4.686;2022-10-16T03:26:10;101013.06;;;11.80;100.00
59337;BME280;45115;52.002;4.686;2022-10-16T03:28:36;101004.59;;;11.73;100.00
59337;BME280;45115;52.002;4.686;2022-10-16T03:31:03;101007.53;;;11.71;100.00
59337;BME280;45115;52.002;4.686;2022-10-16T03:33:30;101017.31;;;11.76;100.00
59337;BME280;45115;52.002;4.686;2022-10-16T03:35:56;101019.72;;;11.77;100.00
59337;BME280;45115;52.002;4.686;2022-10-16T03:38:23;101010.66;;;11.83;100.00
59337;BME280;45115;52.002;4.686;2022-10-16T03:40:50;101012.25;;;11.85;100.00
59337;BME280;45115;52.002;4.686;2022-10-16T03:43:18;101022.91;;;11.79;100.00
59337;BME280;45115;52.002;4.686;2022-10-16T03:45:46;101022.66;;;11.76;100.00
59337;BME280;45115;52.002;4.686;2022-10-16T03:48:13;101022.66;;;11.70;100.00
59337;BME280;45115;52.002;4.686;2022-10-16T03:50:40;101031.44;;;11.71;100.00
59337;BME280;45115;52.002;4.686;2022-10-16T03:53:06;101035.41;;;11.74;100.00
59337;BME280;45115;52.002;4.686;2022-10-16T03:55:34;101037.25;;;11.78;100.00
59337;BME280;45115;52.002;4.686;2022-10-16T03:58:00;101041.78;;;11.83;100.00
59337;BME280;45115;52.002;4.686;2022-10-16T04:00:29;101043.91;;;11.81;100.00
59337;BME280;45115;52.002;4.686;2022-10-16T04:02:55;101042.31;;;11.80;100.00
59337;BME280;45115;52.002;4.686;2022-10-16T04:05:22;101048.16;;;11.72;100.00
59337;BME280;45115;52.002;4.686;2022-10-16T04:07:48;101049.53;;;11.59;100.00
59337;BME280;45115;52.002;4.686;2022-10-16T04:10:15;101057.00;;;11.46;100.00
59337;BME280;45115;52.002;4.686;2022-10-16T04:12:42;101062.31;;;11.41;100.00
59337;BME280;45115;52.002;4.686;2022-10-16T04:15:09;101061.25;;;11.32;100.00
59337;BME280;45115;52.002;4.686;2022-10-16T04:17:37;101057.25;;;11.34;100.00
59337;BME280;45115;52.002;4.686;2022-10-16T04:20:04;101065.78;;;11.26;100.00
59337;BME280;45115;52.002;4.686;2022-10-16T04:22:31;101069.78;;;11.28;100.00
59337;BME280;45115;52.002;4.686;2022-10-16T04:24:58;101069.78;;;11.28;100.00
59337;BME280;45115;52.002;4.686;2022-10-16T04:27:25;101075.84;;;11.34;100.00
59337;BME280;45115;52.002;4.686;2022-10-16T04:29:51;101073.19;;;11.39;100.00
59337;BME280;45115;52.002;4.686;2022-10-16T04:32:18;101083.03;;;11.44;100.00
59337;BME280;45115;52.002;4.686;2022-10-16T04:34:46;101088.34;;;11.49;100.00
59337;BME280;45115;52.002;4.686;2022-10-16T04:37:12;101091.28;;;11.53;100.00
59337;BME280;45115;52.002;4.686;2022-10-16T04:39:39;101080.38;;;11.44;100.00
59337;BME280;45115;52.002;4.686;2022-10-16T04:42:06;101099.50;;;11.46;100.00
59337;BME280;45115;52.002;4.686;2022-10-16T04:44:34;101104.28;;;11.54;100.00
59337;BME280;45115;52.002;4.686;2022-10-16T04:47:00;101105.06;;;11.65;100.00
59337;BME280;45115;52.002;4.686;2022-10-16T04:49:27;101101.59;;;11.75;100.00
59337;BME280;45115;52.002;4.686;2022-10-16T04:51:55;101113.56;;;11.78;100.00
59337;BME280;45115;52.002;4.686;2022-10-16T04:54:22;101110.88;;;11.88;100.00
59337;BME280;45115;52.002;4.686;2022-10-16T04:56:48;101107.16;;;11.89;100.00
59337;BME280;45115;52.002;4.686;2022-10-16T04:59:17;101119.09;;;11.97;100.00
59337;BME280;45115;52.002;4.686;2022-10-16T05:01:44;101137.97;;;12.01;100.00
59337;BME280;45115;52.002;4.686;2022-10-16T05:04:11;101122.03;;;11.90;100.00
59337;BME280;45115;52.002;4.686;2022-10-16T05:06:40;101133.47;;;11.96;100.00
59337;BME280;45115;52.002;4.686;2022-10-16T05:09:08;101129.19;;;11.95;100.00
59337;BME280;45115;52.002;4.686;2022-10-16T05:11:35;101141.13;;;12.03;100.00
59337;BME280;45115;52.002;4.686;2022-10-16T05:14:03;101140.09;;;12.04;100.00
59337;BME280;45115;52.002;4.686;2022-10-16T05:16:43;101132.66;;;12.11;100.00
59337;BME280;45115;52.002;4.686;2022-10-16T05:19:10;101142.22;;;12.12;100.00
59337;BME280;45115;52.002;4.686;2022-10-16T05:21:36;101143.81;;;12.13;100.00
59337;BME280;45115;52.002;4.686;2022-10-16T05:24:03;101150.16;;;12.22;100.00
59337;BME280;45115;52.002;4.686;2022-10-16T05:26:31;101150.44;;;12.21;100.00
59337;BME280;45115;52.002;4.686;2022-10-16T05:28:58;101155.75;;;12.26;100.00
59337;BME280;45115;52.002;4.686;2022-10-16T05:31:24;101159.22;;;12.27;100.00
59337;BME280;45115;52.002;4.686;2022-10-16T05:33:51;101163.47;;;12.22;100.00
59337;BME280;45115;52.002;4.686;2022-10-16T05:36:18;101166.66;;;12.25;100.00
59337;BME280;45115;52.002;4.686;2022-10-16T05:38:44;101170.91;;;12.26;100.00
59337;BME280;45115;52.002;4.686;2022-10-16T05:41:11;101177.84;;;12.21;100.00
59337;BME280;45115;52.002;4.686;2022-10-16T05:43:39;101173.06;;;12.18;100.00
59337;BME280;45115;52.002;4.686;2022-10-16T05:46:11;101180.50;;;12.16;100.00
59337;BME280;45115;52.002;4.686;2022-10-16T05:48:54;101192.47;;;12.24;100.00
59337;BME280;45115;52.002;4.686;2022-10-16T05:51:21;101187.41;;;12.22;100.00
59337;BME280;45115;52.002;4.686;2022-10-16T05:53:48;101192.72;;;12.22;100.00
59337;BME280;45115;52.002;4.686;2022-10-16T05:56:15;101195.66;;;12.16;100.00
59337;BME280;45115;52.002;4.686;2022-10-16T05:58:43;101188.25;;;12.13;100.00
59337;BME280;45115;52.002;4.686;2022-10-16T06:01:11;101185.84;;;12.11;100.00
59337;BME280;45115;52.002;4.686;2022-10-16T06:03:39;101186.63;;;12.17;100.00
59337;BME280;45115;52.002;4.686;2022-10-16T06:06:10;101202.03;;;12.20;100.00
59337;BME280;45115;52.002;4.686;2022-10-16T06:08:37;101195.91;;;12.19;100.00
59337;BME280;45115;52.002;4.686;2022-10-16T06:11:06;101197.25;;;12.17;100.00
59337;BME280;45115;52.002;4.686;2022-10-16T06:13:33;101208.69;;;12.28;100.00
59337;BME280;45115;52.002;4.686;2022-10-16T06:16:01;101198.56;;;12.30;100.00
59337;BME280;45115;52.002;4.686;2022-10-16T06:18:29;101202.81;;;12.36;100.00
59337;BME280;45115;52.002;4.686;2022-10-16T06:20:56;101195.13;;;12.29;100.00
59337;BME280;45115;52.002;4.686;2022-10-16T06:23:24;101204.94;;;12.34;100.00
59337;BME280;45115;52.002;4.686;2022-10-16T06:25:51;101210.00;;;12.35;100.00
59337;BME280;45115;52.002;4.686;2022-10-16T06:28:17;101197.75;;;12.40;100.00
59337;BME280;45115;52.002;4.686;2022-10-16T06:30:44;101209.16;;;12.45;100.00
59337;BME280;45115;52.002;4.686;2022-10-16T06:33:12;101208.13;;;12.46;100.00
59337;BME280;45115;52.002;4.686;2022-10-16T06:35:39;101204.41;;;12.42;100.00
59337;BME280;45115;52.002;4.686;2022-10-16T06:38:06;101206.78;;;12.44;100.00
59337;BME280;45115;52.002;4.686;2022-10-16T06:40:33;101211.56;;;12.47;100.00
59337;BME280;45115;52.002;4.686;2022-10-16T06:42:59;101198.50;;;12.45;100.00
59337;BME280;45115;52.002;4.686;2022-10-16T06:45:26;101200.13;;;12.46;100.00
59337;BME280;45115;52.002;4.686;2022-10-16T06:47:54;101212.88;;;12.49;100.00
59337;BME280;45115;52.002;4.686;2022-10-16T06:50:22;101225.91;;;12.51;100.00
59337;BME280;45115;52.002;4.686;2022-10-16T06:52:49;101227.00;;;12.50;100.00
59337;BME280;45115;52.002;4.686;2022-10-16T06:55:16;101236.03;;;12.54;100.00
59337;BME280;45115;52.002;4.686;2022-10-16T06:57:43;101238.41;;;12.56;100.00
59337;BME280;45115;52.002;4.686;2022-10-16T07:00:13;101246.38;;;12.61;100.00
59337;BME280;45115;52.002;4.686;2022-10-16T07:02:39;101260.22;;;12.63;100.00
59337;BME280;45115;52.002;4.686;2022-10-16T07:05:07;101250.09;;;12.60;100.00
59337;BME280;45115;52.002;4.686;2022-10-16T07:07:37;101264.22;;;12.55;100.00
59337;BME280;45115;52.002;4.686;2022-10-16T07:10:04;101276.22;;;12.58;100.00
59337;BME280;45115;52.002;4.686;2022-10-16T07:12:31;101269.56;;;12.55;100.00
59337;BME280;45115;52.002;4.686;2022-10-16T07:14:58;101286.03;;;12.57;100.00
59337;BME280;45115;52.002;4.686;2022-10-16T07:17:24;101292.19;;;12.47;100.00
59337;BME280;45115;52.002;4.686;2022-10-16T07:19:51;101297.25;;;12.49;100.00
59337;BME280;45115;52.002;4.686;2022-10-16T07:22:18;101298.03;;;12.44;100.00
59337;BME280;45115;52.002;4.686;2022-10-16T07:24:46;101306.28;;;12.53;100.00
59337;BME280;45115;52.002;4.686;2022-10-16T07:27:13;101318.25;;;12.61;100.00
59337;BME280;45115;52.002;4.686;2022-10-16T07:29:41;101323.28;;;12.68;100.00
59337;BME280;45115;52.002;4.686;2022-10-16T07:32:08;101327.00;;;12.72;100.00
59337;BME280;45115;52.002;4.686;2022-10-16T07:34:35;101331.00;;;12.74;100.00
59337;BME280;45115;52.002;4.686;2022-10-16T07:37:02;101338.97;;;12.85;100.00
59337;BME280;45115;52.002;4.686;2022-10-16T07:39:28;101346.69;;;12.92;100.00
59337;BME280;45115;52.002;4.686;2022-10-16T07:41:56;101355.97;;;12.99;100.00
59337;BME280;45115;52.002;4.686;2022-10-16T07:44:24;101354.88;;;13.06;100.00
59337;BME280;45115;52.002;4.686;2022-10-16T07:46:50;101352.72;;;13.13;100.00
59337;BME280;45115;52.002;4.686;2022-10-16T07:49:17;101350.06;;;13.13;100.00
59337;BME280;45115;52.002;4.686;2022-10-16T07:51:44;101356.16;;;13.24;100.00
59337;BME280;45115;52.002;4.686;2022-10-16T07:54:10;101360.91;;;13.32;100.00
59337;BME280;45115;52.002;4.686;2022-10-16T07:56:37;101362.19;;;13.40;100.00
59337;BME280;45115;52.002;4.686;2022-10-16T07:59:05;101369.94;;;13.47;100.00
59337;BME280;45115;52.002;4.686;2022-10-16T08:01:32;101381.91;;;13.54;100.00
59337;BME280;45115;52.002;4.686;2022-10-16T08:03:59;101378.16;;;13.55;100.00
59337;BME280;45115;52.002;4.686;2022-10-16T08:06:26;101375.19;;;13.62;100.00
59337;BME280;45115;52.002;4.686;2022-10-16T08:08:52;101379.97;;;13.71;100.00
59337;BME280;45115;52.002;4.686;2022-10-16T08:11:19;101374.75;;;13.95;100.00
59337;BME280;45115;52.002;4.686;2022-10-16T08:13:46;101380.94;;;14.25;100.00
59337;BME280;45115;52.002;4.686;2022-10-16T08:16:14;101382.72;;;14.35;100.00
59337;BME280;45115;52.002;4.686;2022-10-16T08:18:41;101372.59;;;14.61;100.00
59337;BME280;45115;52.002;4.686;2022-10-16T08:21:13;101389.22;;;14.88;100.00
59337;BME280;45115;52.002;4.686;2022-10-16T08:23:40;101388.25;;;14.73;100.00
59337;BME280;45115;52.002;4.686;2022-10-16T08:26:07;101392.88;;;14.97;100.00
59337;BME280;45115;52.002;4.686;2022-10-16T08:28:35;101393.53;;;15.08;100.00
59337;BME280;45115;52.002;4.686;2022-10-16T08:31:06;101390.75;;;15.19;100.00
59337;BME280;45115;52.002;4.686;2022-10-16T08:33:34;101404.78;;;15.30;100.00
59337;BME280;45115;52.002;4.686;2022-10-16T08:36:02;101411.13;;;15.39;100.00
59337;BME280;45115;52.002;4.686;2022-10-16T08:38:29;101399.84;;;15.61;100.00
59337;BME280;45115;52.002;4.686;2022-10-16T08:41:02;101420.41;;;15.66;100.00
59337;BME280;45115;52.002;4.686;2022-10-16T08:43:49;101420.63;;;15.70;100.00
59337;BME280;45115;52.002;4.686;2022-10-16T08:46:26;101417.25;;;15.59;100.00
59337;BME280;45115;52.002;4.686;2022-10-16T08:48:59;101433.25;;;15.64;100.00
59337;BME280;45115;52.002;4.686;2022-10-16T08:51:28;101436.41;;;15.47;100.00
59337;BME280;45115;52.002;4.686;2022-10-16T08:53:56;101423.25;;;15.50;100.00
59337;BME280;45115;52.002;4.686;2022-10-16T08:56:25;101441.66;;;15.57;100.00
59337;BME280;45115;52.002;4.686;2022-10-16T08:58:53;101436.22;;;15.62;100.00
59337;BME280;45115;52.002;4.686;2022-10-16T09:01:22;101447.97;;;15.86;100.00
59337;BME280;45115;52.002;4.686;2022-10-16T09:04:03;101441.72;;;15.71;100.00
59337;BME280;45115;52.002;4.686;2022-10-16T09:06:45;101458.03;;;15.94;100.00
59337;BME280;45115;52.002;4.686;2022-10-16T09:09:24;101463.16;;;15.90;100.00
59337;BME280;45115;52.002;4.686;2022-10-16T09:11:58;101459.38;;;15.72;100.00
59337;BME280;45115;52.002;4.686;2022-10-16T09:14:40;101458.94;;;15.84;100.00
59337;BME280;45115;52.002;4.686;2022-10-16T09:17:30;101463.31;;;15.99;100.00
59337;BME280;45115;52.002;4.686;2022-10-16T09:20:18;101457.69;;;16.01;100.00
59337;BME280;45115;52.002;4.686;2022-10-16T09:22:45;101460.09;;;16.02;100.00
59337;BME280;45115;52.002;4.686;2022-10-16T09:25:13;101471.94;;;16.15;100.00
59337;BME280;45115;52.002;4.686;2022-10-16T09:27:42;101465.69;;;16.39;100.00
59337;BME280;45115;52.002;4.686;2022-10-16T09:30:12;101469.75;;;16.17;100.00
59337;BME280;45115;52.002;4.686;2022-10-16T09:32:40;101471.34;;;16.18;100.00
59337;BME280;45115;52.002;4.686;2022-10-16T09:35:15;101468.44;;;16.34;100.00
59337;BME280;45115;52.002;4.686;2022-10-16T09:37:44;101463.16;;;16.29;100.00
59337;BME280;45115;52.002;4.686;2022-10-16T09:40:13;101471.94;;;16.68;100.00
59337;BME280;45115;52.002;4.686;2022-10-16T09:42:39;101473.16;;;16.90;100.00
59337;BME280;45115;52.002;4.686;2022-10-16T09:45:20;101477.16;;;16.92;100.00
59337;BME280;45115;52.002;4.686;2022-10-16T09:47:47;101478.19;;;17.10;100.00
59337;BME280;45115;52.002;4.686;2022-10-16T09:50:24;101473.34;;;17.26;100.00
59337;BME280;45115;52.002;4.686;2022-10-16T09:53:03;101485.19;;;17.53;100.00
59337;BME280;45115;52.002;4.686;2022-10-16T09:55:30;101489.38;;;18.11;100.00
59337;BME280;45115;52.002;4.686;2022-10-16T09:57:57;101473.44;;;18.14;100.00
59337;BME280;45115;52.002;4.686;2022-10-16T10:00:24;101486.66;;;18.48;100.00
59337;BME280;45115;52.002;4.686;2022-10-16T10:02:51;101486.31;;;18.95;100.00
59337;BME280;45115;52.002;4.686;2022-10-16T10:05:22;101489.47;;;19.29;100.00
59337;BME280;45115;52.002;4.686;2022-10-16T10:07:54;101475.31;;;19.63;100.00
59337;BME280;45115;52.002;4.686;2022-10-16T10:10:24;101488.53;;;19.33;100.00
59337;BME280;45115;52.002;4.686;2022-10-16T10:12:51;101478.16;;;19.09;100.00
59337;BME280;45115;52.002;4.686;2022-10-16T10:15:18;101482.28;;;19.06;100.00
59337;BME280;45115;52.002;4.686;2022-10-16T10:17:49;101485.50;;;18.94;100.00
59337;BME280;45115;52.002;4.686;2022-10-16T10:20:25;101486.16;;;18.68;100.00
59337;BME280;45115;52.002;4.686;2022-10-16T10:22:54;101501.00;;;18.43;100.00
59337;BME280;45115;52.002;4.686;2022-10-16T10:25:29;101505.38;;;18.62;100.00
59337;BME280;45115;52.002;4.686;2022-10-16T10:28:21;101509.00;;;18.34;100.00
59337;BME280;45115;52.002;4.686;2022-10-16T10:30:57;101515.44;;;17.96;100.00
59337;BME280;45115;52.002;4.686;2022-10-16T10:33:30;101501.84;;;17.22;100.00
59337;BME280;45115;52.002;4.686;2022-10-16T10:36:11;101519.84;;;17.03;100.00
59337;BME280;45115;52.002;4.686;2022-10-16T10:38:45;101529.13;;;16.77;100.00
59337;BME280;45115;52.002;4.686;2022-10-16T10:41:25;101530.19;;;16.62;100.00
59337;BME280;45115;52.002;4.686;2022-10-16T10:44:03;101521.69;;;16.55;100.00
59337;BME280;45115;52.002;4.686;2022-10-16T10:46:35;101531.53;;;16.40;100.00
59337;BME280;45115;52.002;4.686;2022-10-16T10:49:16;101519.81;;;16.55;100.00
59337;BME280;45115;52.002;4.686;2022-10-16T10:51:55;101520.78;;;16.26;100.00
59337;BME280;45115;52.002;4.686;2022-10-16T10:54:28;101521.50;;;16.51;100.00
59337;BME280;45115;52.002;4.686;2022-10-16T10:57:02;101531.59;;;16.73;100.00
59337;BME280;45115;52.002;4.686;2022-10-16T10:59:59;101536.75;;;16.51;100.00
59337;BME280;45115;52.002;4.686;2022-10-16T11:02:34;101535.34;;;16.72;100.00
59337;BME280;45115;52.002;4.686;2022-10-16T11:05:17;101528.00;;;16.97;100.00
59337;BME280;45115;52.002;4.686;2022-10-16T11:07:54;101529.28;;;17.00;100.00
59337;BME280;45115;52.002;4.686;2022-10-16T11:10:27;101547.97;;;17.52;100.00
59337;BME280;45115;52.002;4.686;2022-10-16T11:12:58;101533.38;;;17.45;96.27
59337;BME280;45115;52.002;4.686;2022-10-16T11:15:28;101556.13;;;18.17;95.44
59337;BME280;45115;52.002;4.686;2022-10-16T11:18:00;101559.31;;;18.42;93.15
59337;BME280;45115;52.002;4.686;2022-10-16T11:20:33;101556.03;;;18.45;92.29
59337;BME280;45115;52.002;4.686;2022-10-16T11:23:10;101562.69;;;18.71;88.44
59337;BME280;45115;52.002;4.686;2022-10-16T11:25:39;101554.25;;;19.09;86.75
59337;BME280;45115;52.002;4.686;2022-10-16T11:28:10;101567.09;;;19.12;81.29
59337;BME280;45115;52.002;4.686;2022-10-16T11:30:43;101562.75;;;19.34;81.82
59337;BME280;45115;52.002;4.686;2022-10-16T11:33:24;101568.44;;;19.01;80.47
59337;BME280;45115;52.002;4.686;2022-10-16T11:35:55;101565.78;;;18.64;83.38
59337;BME280;45115;52.002;4.686;2022-10-16T11:38:29;101562.81;;;18.66;82.76
59337;BME280;45115;52.002;4.686;2022-10-16T11:41:02;101559.00;;;18.67;82.74
59337;BME280;45115;52.002;4.686;2022-10-16T11:43:33;101569.78;;;18.90;81.87
59337;BME280;45115;52.002;4.686;2022-10-16T11:46:05;101568.41;;;19.24;80.62
59337;BME280;45115;52.002;4.686;2022-10-16T11:48:39;101566.47;;;19.56;78.10
59337;BME280;45115;52.002;4.686;2022-10-16T11:51:12;101556.59;;;19.34;76.79
59337;BME280;45115;52.002;4.686;2022-10-16T11:53:45;101571.69;;;19.52;79.07
59337;BME280;45115;52.002;4.686;2022-10-16T11:56:15;101574.41;;;19.52;77.22
59337;BME280;45115;52.002;4.686;2022-10-16T11:58:51;101587.28;;;19.73;76.03
59337;BME280;45115;52.002;4.686;2022-10-16T12:01:24;101580.44;;;19.58;72.89
59337;BME280;45115;52.002;4.686;2022-10-16T12:04:02;101581.22;;;19.59;72.30
59337;BME280;45115;52.002;4.686;2022-10-16T12:06:34;101595.34;;;19.33;74.36
59337;BME280;45115;52.002;4.686;2022-10-16T12:09:05;101597.34;;;19.18;75.36
59337;BME280;45115;52.002;4.686;2022-10-16T12:11:35;101593.56;;;19.19;76.76
59337;BME280;45115;52.002;4.686;2022-10-16T12:14:32;101595.94;;;19.21;75.67
59337;BME280;45115;52.002;4.686;2022-10-16T12:17:02;101602.28;;;19.25;76.97
59337;BME280;45115;52.002;4.686;2022-10-16T12:19:32;101602.34;;;19.11;74.88
59337;BME280;45115;52.002;4.686;2022-10-16T12:22:00;101596.56;;;18.95;72.75
59337;BME280;45115;52.002;4.686;2022-10-16T12:24:34;101596.78;;;18.84;74.18
59337;BME280;45115;52.002;4.686;2022-10-16T12:27:03;101599.53;;;18.70;73.77
59337;BME280;45115;52.002;4.686;2022-10-16T12:29:33;101598.16;;;18.59;74.37
59337;BME280;45115;52.002;4.686;2022-10-16T12:32:03;101605.84;;;18.52;76.19
59337;BME280;45115;52.002;4.686;2022-10-16T12:34:37;101599.38;;;18.53;76.81
59337;BME280;45115;52.002;4.686;2022-10-16T12:37:10;101605.16;;;18.60;78.04
59337;BME280;45115;52.002;4.686;2022-10-16T12:39:40;101600.72;;;18.64;77.98
59337;BME280;45115;52.002;4.686;2022-10-16T12:42:22;101604.00;;;18.75;77.29
59337;BME280;45115;52.002;4.686;2022-10-16T12:44:49;101599.78;;;19.06;78.18
59337;BME280;45115;52.002;4.686;2022-10-16T12:47:23;101606.66;;;18.98;74.89
59337;BME280;45115;52.002;4.686;2022-10-16T12:50:01;101607.56;;;19.07;76.85
59337;BME280;45115;52.002;4.686;2022-10-16T12:52:35;101603.53;;;18.59;76.41
59337;BME280;45115;52.002;4.686;2022-10-16T12:55:05;101604.41;;;18.68;78.11
59337;BME280;45115;52.002;4.686;2022-10-16T12:57:41;101603.75;;;18.49;78.59